createdAt,value
2017-09-15T00:02:01.398Z,8.60
2017-09-15T00:04:27.836Z,8.50
2017-09-15T00:06:54.265Z,8.60
2017-09-15T00:09:20.689Z,8.60
2017-09-15T00:11:47.134Z,8.50
2017-09-15T00:14:14.310Z,8.50
2017-09-15T00:16:41.514Z,8.40
2017-09-15T00:19:07.971Z,8.40
2017-09-15T00:21:34.386Z,8.40
2017-09-15T00:24:01.589Z,8.40
2017-09-15T00:26:28.002Z,8.40
2017-09-15T00:28:55.204Z,8.40
2017-09-15T00:31:21.651Z,8.30
2017-09-15T00:33:48.113Z,8.30
2017-09-15T00:36:14.581Z,8.40
2017-09-15T00:38:40.990Z,8.50
2017-09-15T00:41:08.177Z,8.50
2017-09-15T00:43:34.633Z,8.50
2017-09-15T00:46:01.108Z,8.50
2017-09-15T00:48:27.559Z,8.50
2017-09-15T00:50:54.095Z,8.50
2017-09-15T00:53:20.534Z,8.50
2017-09-15T00:55:47.233Z,8.60
2017-09-15T00:58:14.859Z,8.60
2017-09-15T01:00:41.831Z,8.50
2017-09-15T01:03:09.117Z,8.70
2017-09-15T01:05:35.582Z,8.60
2017-09-15T01:08:02.030Z,8.60
2017-09-15T01:10:28.528Z,8.60
2017-09-15T01:12:55.003Z,8.60
2017-09-15T01:15:21.446Z,8.70
2017-09-15T01:17:48.701Z,8.60
2017-09-15T01:20:15.929Z,8.60
2017-09-15T01:22:42.389Z,8.60
2017-09-15T01:25:09.595Z,8.60
2017-09-15T01:27:36.046Z,8.50
2017-09-15T01:30:02.537Z,8.50
2017-09-15T01:32:28.972Z,8.50
2017-09-15T01:34:55.430Z,8.50
2017-09-15T01:37:22.714Z,8.50
2017-09-15T01:39:49.179Z,8.50
2017-09-15T01:42:15.652Z,8.50
2017-09-15T01:44:42.505Z,8.50
2017-09-15T01:47:08.957Z,8.50
2017-09-15T01:49:36.126Z,8.50
2017-09-15T01:52:02.565Z,8.50
2017-09-15T01:54:29.017Z,8.50
2017-09-15T01:56:55.467Z,8.40
2017-09-15T01:59:21.914Z,8.40
2017-09-15T02:01:48.389Z,8.30
2017-09-15T02:04:14.921Z,8.20
2017-09-15T02:06:42.134Z,8.30
2017-09-15T02:09:08.598Z,8.20
2017-09-15T02:11:35.052Z,8.20
2017-09-15T02:14:01.568Z,8.20
2017-09-15T02:16:27.981Z,8.20
2017-09-15T02:18:54.429Z,8.10
2017-09-15T02:21:20.853Z,8.10
2017-09-15T02:23:48.078Z,8.10
2017-09-15T02:26:14.538Z,8.10
2017-09-15T02:28:41.025Z,8.10
2017-09-15T02:31:07.462Z,8.10
2017-09-15T02:33:33.921Z,8.00
2017-09-15T02:36:00.438Z,8.00
2017-09-15T02:38:26.882Z,8.00
2017-09-15T02:40:53.290Z,8.00
2017-09-15T02:43:19.725Z,8.10
2017-09-15T02:45:46.214Z,8.10
2017-09-15T02:48:13.393Z,8.20
2017-09-15T02:50:39.848Z,8.20
2017-09-15T02:53:06.293Z,8.20
2017-09-15T02:55:32.729Z,8.30
2017-09-15T02:57:59.194Z,8.10
2017-09-15T03:00:25.598Z,8.20
2017-09-15T03:02:52.106Z,8.20
2017-09-15T03:05:18.557Z,8.20
2017-09-15T03:07:45.763Z,8.10
2017-09-15T03:10:12.173Z,8.10
2017-09-15T03:12:39.354Z,8.00
2017-09-15T03:15:06.526Z,8.10
2017-09-15T03:17:32.992Z,8.00
2017-09-15T03:19:59.405Z,8.00
2017-09-15T03:22:25.848Z,8.00
2017-09-15T03:24:52.322Z,7.90
2017-09-15T03:27:18.783Z,7.90
2017-09-15T03:29:45.973Z,7.90
2017-09-15T03:32:12.430Z,7.90
2017-09-15T03:34:38.886Z,7.90
2017-09-15T03:37:06.070Z,7.80
2017-09-15T03:39:32.514Z,7.80
2017-09-15T03:41:58.932Z,7.70
2017-09-15T03:44:25.374Z,7.70
2017-09-15T03:46:51.829Z,7.70
2017-09-15T03:49:18.262Z,7.60
2017-09-15T03:51:44.670Z,7.60
2017-09-15T03:54:11.131Z,7.60
2017-09-15T03:56:37.542Z,7.60
2017-09-15T03:59:03.982Z,7.50
2017-09-15T04:01:30.526Z,7.40
2017-09-15T04:03:56.948Z,7.40
2017-09-15T04:06:23.370Z,7.30
2017-09-15T04:08:49.818Z,7.30
2017-09-15T04:11:16.254Z,7.40
2017-09-15T04:13:42.674Z,7.40
2017-09-15T04:16:09.118Z,7.30
2017-09-15T04:18:35.537Z,7.20
2017-09-15T04:21:02.304Z,6.90
2017-09-15T04:23:28.717Z,6.80
2017-09-15T04:25:55.195Z,6.90
2017-09-15T04:31:31.686Z,7.00
2017-09-15T04:33:58.113Z,7.20
2017-09-15T04:36:24.585Z,7.10
2017-09-15T04:38:51.096Z,7.00
2017-09-15T04:41:17.721Z,6.70
2017-09-15T04:43:44.925Z,6.50
2017-09-15T04:46:11.338Z,6.50
2017-09-15T04:48:37.817Z,6.50
2017-09-15T04:51:04.278Z,6.50
2017-09-15T04:53:31.104Z,6.40
2017-09-15T04:55:57.665Z,6.70
2017-09-15T04:58:24.114Z,6.80
2017-09-15T05:00:50.583Z,6.70
2017-09-15T05:03:17.049Z,6.50
2017-09-15T05:05:43.499Z,6.30
2017-09-15T05:08:09.999Z,5.90
2017-09-15T05:10:36.425Z,5.60
2017-09-15T05:13:02.879Z,5.50
2017-09-15T05:15:29.285Z,5.40
2017-09-15T05:17:55.784Z,5.40
2017-09-15T05:20:22.287Z,5.50
2017-09-15T05:22:48.719Z,5.40
2017-09-15T05:25:15.931Z,5.50
2017-09-15T05:27:42.437Z,5.50
2017-09-15T05:30:08.888Z,5.60
2017-09-15T05:32:35.309Z,5.60
2017-09-15T05:35:02.487Z,5.70
2017-09-15T05:37:28.889Z,5.70
2017-09-15T05:39:55.325Z,5.80
2017-09-15T05:42:21.805Z,6.10
2017-09-15T05:44:48.228Z,6.30
2017-09-15T05:47:14.649Z,6.50
2017-09-15T05:49:41.093Z,6.70
2017-09-15T05:52:07.530Z,6.70
2017-09-15T05:54:34.011Z,6.90
2017-09-15T05:57:01.190Z,7.20
2017-09-15T05:59:27.628Z,7.20
2017-09-15T06:01:54.050Z,7.30
2017-09-15T06:04:20.566Z,7.30
2017-09-15T06:06:46.990Z,7.60
2017-09-15T06:09:14.250Z,7.80
2017-09-15T06:11:41.425Z,8.00
2017-09-15T06:14:07.882Z,7.90
2017-09-15T06:16:34.413Z,8.30
2017-09-15T06:19:00.880Z,8.60
2017-09-15T06:21:27.317Z,9.00
2017-09-15T06:23:53.759Z,9.20
2017-09-15T06:26:20.921Z,8.80
2017-09-15T06:28:47.366Z,8.80
2017-09-15T06:31:13.793Z,8.80
2017-09-15T06:33:40.241Z,9.10
2017-09-15T06:36:06.656Z,9.20
2017-09-15T06:38:33.075Z,9.20
2017-09-15T06:41:00.289Z,9.30
2017-09-15T06:43:26.717Z,9.20
2017-09-15T06:45:53.113Z,9.40
2017-09-15T06:48:20.318Z,10.00
2017-09-15T06:50:46.725Z,9.90
2017-09-15T06:53:13.930Z,10.70
2017-09-15T06:55:41.076Z,11.10
2017-09-15T06:58:07.554Z,11.00
2017-09-15T07:00:34.028Z,11.40
2017-09-15T07:03:00.458Z,11.90
2017-09-15T07:05:27.682Z,12.60
2017-09-15T07:07:54.873Z,12.90
2017-09-15T07:10:22.089Z,12.90
2017-09-15T07:12:48.501Z,12.90
2017-09-15T07:15:14.986Z,13.20
2017-09-15T07:17:42.139Z,14.00
2017-09-15T07:20:09.302Z,14.00
2017-09-15T07:22:35.727Z,14.00
2017-09-15T07:25:02.245Z,14.60
2017-09-15T07:27:28.690Z,14.90
2017-09-15T07:29:55.858Z,14.60
2017-09-15T07:32:22.426Z,14.60
2017-09-15T07:34:48.882Z,14.70
2017-09-15T07:37:15.319Z,14.90
2017-09-15T07:39:41.770Z,15.60
2017-09-15T07:42:08.217Z,16.20
2017-09-15T07:44:34.681Z,16.40
2017-09-15T07:47:01.113Z,16.90
2017-09-15T07:49:27.602Z,17.30
2017-09-15T07:51:54.800Z,17.80
2017-09-15T07:54:21.294Z,17.80
2017-09-15T07:56:48.429Z,17.60
2017-09-15T07:59:14.905Z,17.60
2017-09-15T08:01:41.358Z,17.80
2017-09-15T08:04:07.821Z,17.70
2017-09-15T08:06:34.313Z,18.20
2017-09-15T08:09:00.770Z,18.30
2017-09-15T08:11:27.253Z,18.70
2017-09-15T08:13:53.674Z,19.10
2017-09-15T08:16:20.202Z,19.60
2017-09-15T08:18:46.652Z,20.00
2017-09-15T08:21:13.100Z,20.40
2017-09-15T08:23:39.505Z,20.50
2017-09-15T08:26:07.497Z,21.00
2017-09-15T08:28:33.933Z,21.00
2017-09-15T08:31:00.359Z,21.60
2017-09-15T08:33:26.968Z,22.10
2017-09-15T08:35:53.501Z,22.10
2017-09-15T08:38:19.951Z,22.50
2017-09-15T08:40:47.092Z,23.70
2017-09-15T08:43:14.377Z,23.60
2017-09-15T08:45:40.906Z,24.20
2017-09-15T08:48:07.345Z,24.70
2017-09-15T08:50:33.864Z,24.30
2017-09-15T08:53:00.312Z,24.40
2017-09-15T08:55:26.749Z,24.20
2017-09-15T08:57:53.197Z,23.60
2017-09-15T09:00:19.650Z,23.80
2017-09-15T09:02:46.129Z,23.90
2017-09-15T09:05:13.314Z,23.80
2017-09-15T09:07:39.765Z,23.80
2017-09-15T09:10:06.193Z,23.80
2017-09-15T09:12:32.658Z,23.20
2017-09-15T09:14:59.077Z,22.80
2017-09-15T09:17:25.507Z,22.70
2017-09-15T09:19:51.949Z,22.60
2017-09-15T09:22:18.406Z,23.30
2017-09-15T09:24:44.864Z,24.10
2017-09-15T09:27:11.297Z,24.70
2017-09-15T09:29:37.734Z,24.90
2017-09-15T09:32:04.225Z,24.30
2017-09-15T09:34:31.383Z,23.70
2017-09-15T09:36:58.597Z,24.10
2017-09-15T09:39:25.757Z,24.10
2017-09-15T09:41:52.230Z,24.10
2017-09-15T09:44:18.655Z,24.40
2017-09-15T09:46:45.801Z,24.80
2017-09-15T09:49:12.978Z,25.40
2017-09-15T09:51:39.402Z,25.40
2017-09-15T09:54:05.865Z,25.70
2017-09-15T09:56:32.294Z,25.30
2017-09-15T09:58:58.694Z,25.00
2017-09-15T10:01:25.130Z,23.90
2017-09-15T10:03:51.537Z,22.60
2017-09-15T10:06:17.991Z,22.30
2017-09-15T10:08:44.421Z,22.70
2017-09-15T10:11:10.842Z,22.40
2017-09-15T10:13:37.302Z,21.90
2017-09-15T10:16:03.801Z,22.50
2017-09-15T10:18:30.236Z,22.80
2017-09-15T10:20:56.702Z,22.90
2017-09-15T10:23:23.160Z,22.50
2017-09-15T10:25:49.593Z,22.10
2017-09-15T10:28:16.017Z,22.50
2017-09-15T10:30:42.483Z,22.70
2017-09-15T10:33:09.672Z,20.70
2017-09-15T10:35:36.858Z,21.10
2017-09-15T10:38:03.322Z,21.10
2017-09-15T10:40:29.761Z,20.60
2017-09-15T10:42:56.217Z,20.90
2017-09-15T10:45:23.370Z,20.80
2017-09-15T10:47:49.819Z,20.90
2017-09-15T10:50:16.244Z,20.70
2017-09-15T10:52:42.690Z,20.90
2017-09-15T10:55:09.138Z,20.70
2017-09-15T10:57:41.782Z,20.50
2017-09-15T11:00:11.830Z,19.90
2017-09-15T11:02:38.294Z,19.90
2017-09-15T11:05:04.705Z,19.60
2017-09-15T11:07:31.117Z,19.00
2017-09-15T11:09:57.565Z,18.70
2017-09-15T11:12:24.067Z,18.40
2017-09-15T11:14:50.476Z,18.10
2017-09-15T11:17:16.914Z,18.20
2017-09-15T11:19:44.079Z,17.80
2017-09-15T11:22:11.301Z,17.80
2017-09-15T11:24:37.700Z,17.80
2017-09-15T11:27:04.129Z,17.80
2017-09-15T11:29:30.580Z,18.10
2017-09-15T11:31:57.027Z,18.20
2017-09-15T11:34:23.498Z,18.00
2017-09-15T11:36:50.670Z,18.10
2017-09-15T11:39:17.078Z,18.10
2017-09-15T11:41:43.541Z,18.00
2017-09-15T11:44:09.963Z,17.70
2017-09-15T11:46:36.409Z,17.50
2017-09-15T11:49:02.826Z,17.10
2017-09-15T11:51:29.268Z,17.20
2017-09-15T11:53:55.770Z,16.30
2017-09-15T11:56:22.210Z,16.40
2017-09-15T11:58:48.656Z,15.40
2017-09-15T12:01:15.110Z,15.50
2017-09-15T12:03:41.581Z,15.70
2017-09-15T12:06:08.754Z,15.90
2017-09-15T12:08:35.218Z,15.90
2017-09-15T12:11:01.677Z,16.00
2017-09-15T12:13:28.089Z,15.90
2017-09-15T12:15:54.538Z,15.40
2017-09-15T12:18:21.002Z,15.30
2017-09-15T12:20:48.186Z,15.10
2017-09-15T12:23:14.652Z,15.10
2017-09-15T12:25:41.076Z,14.70
2017-09-15T12:28:07.549Z,14.60
2017-09-15T12:30:33.976Z,14.30
2017-09-15T12:33:00.400Z,14.20
2017-09-15T12:35:26.850Z,14.10
2017-09-15T12:37:53.300Z,14.20
2017-09-15T12:40:19.741Z,14.40
2017-09-15T12:42:46.197Z,14.20
2017-09-15T12:45:12.621Z,14.30
2017-09-15T12:47:39.023Z,14.60
2017-09-15T12:50:06.241Z,15.10
2017-09-15T12:52:32.658Z,15.10
2017-09-15T12:54:59.090Z,15.10
2017-09-15T12:57:25.525Z,15.10
2017-09-15T12:59:51.993Z,15.40
2017-09-15T13:02:18.393Z,15.50
2017-09-15T13:04:44.796Z,15.50
2017-09-15T13:07:11.250Z,15.50
2017-09-15T13:09:37.690Z,15.60
2017-09-15T13:12:04.149Z,15.60
2017-09-15T13:14:31.366Z,15.70
2017-09-15T13:16:57.796Z,15.70
2017-09-15T13:19:24.246Z,15.90
2017-09-15T13:21:50.689Z,16.00
2017-09-15T13:24:17.157Z,16.20
2017-09-15T13:26:44.310Z,16.50
2017-09-15T13:29:11.518Z,16.50
2017-09-15T13:31:37.949Z,16.50
2017-09-15T13:34:04.409Z,16.70
2017-09-15T13:36:31.650Z,16.60
2017-09-15T13:38:58.114Z,16.60
2017-09-15T13:41:24.558Z,16.50
2017-09-15T13:43:51.074Z,16.30
2017-09-15T13:46:18.289Z,16.30
2017-09-15T13:48:44.738Z,16.30
2017-09-15T13:51:11.254Z,16.40
2017-09-15T13:53:38.422Z,16.20
2017-09-15T13:56:04.890Z,16.10
2017-09-15T13:58:31.328Z,16.10
2017-09-15T14:00:58.512Z,16.20
2017-09-15T14:03:24.926Z,16.20
2017-09-15T14:05:51.344Z,16.10
2017-09-15T14:08:17.808Z,15.80
2017-09-15T14:10:44.238Z,15.80
2017-09-15T14:13:10.648Z,15.80
2017-09-15T14:15:37.166Z,15.20
2017-09-15T14:18:03.609Z,15.40
2017-09-15T14:20:30.973Z,15.60
2017-09-15T14:22:57.402Z,15.70
2017-09-15T14:25:23.796Z,15.70
2017-09-15T14:27:50.303Z,15.80
2017-09-15T14:30:16.726Z,15.70
2017-09-15T14:32:43.172Z,15.70
2017-09-15T14:35:09.617Z,15.80
2017-09-15T14:37:36.041Z,15.80
2017-09-15T14:40:03.314Z,15.60
2017-09-15T14:42:29.759Z,15.60
2017-09-15T14:44:56.933Z,15.60
2017-09-15T14:47:23.396Z,15.60
2017-09-15T14:49:49.810Z,15.70
2017-09-15T14:52:16.274Z,15.60
2017-09-15T14:54:42.706Z,15.60
2017-09-15T14:57:09.178Z,15.40
2017-09-15T14:59:36.404Z,15.50
2017-09-15T15:02:03.615Z,15.40
2017-09-15T15:04:30.092Z,15.40
2017-09-15T15:06:56.501Z,15.40
2017-09-15T15:09:22.978Z,15.30
2017-09-15T15:11:50.189Z,15.10
2017-09-15T15:14:16.619Z,15.10
2017-09-15T15:16:43.056Z,14.90
2017-09-15T15:19:09.493Z,14.50
2017-09-15T15:21:35.968Z,14.50
2017-09-15T15:24:03.140Z,14.50
2017-09-15T15:26:29.650Z,14.50
2017-09-15T15:28:56.853Z,14.60
2017-09-15T15:31:23.266Z,14.60
2017-09-15T15:33:49.708Z,14.70
2017-09-15T15:36:16.143Z,14.70
2017-09-15T15:38:42.597Z,14.80
2017-09-15T15:41:09.015Z,14.90
2017-09-15T15:43:35.463Z,14.70
2017-09-15T15:46:01.891Z,14.70
2017-09-15T15:48:28.338Z,14.70
2017-09-15T15:50:54.805Z,14.70
2017-09-15T15:53:21.964Z,14.60
2017-09-15T15:55:48.496Z,14.60
2017-09-15T15:58:14.975Z,14.60
2017-09-15T16:00:42.318Z,14.50
2017-09-15T16:03:08.753Z,14.60
2017-09-15T16:05:35.926Z,14.30
2017-09-15T16:08:02.427Z,14.30
2017-09-15T16:10:28.846Z,14.50
2017-09-15T16:12:55.277Z,14.60
2017-09-15T16:15:21.728Z,14.70
2017-09-15T16:17:48.194Z,14.90
2017-09-15T16:20:15.398Z,14.80
2017-09-15T16:22:41.890Z,14.80
2017-09-15T16:25:08.338Z,14.80
2017-09-15T16:27:35.553Z,14.90
2017-09-15T16:30:02.076Z,14.90
2017-09-15T16:32:28.550Z,14.80
2017-09-15T16:34:55.821Z,14.70
2017-09-15T16:37:22.180Z,14.70
2017-09-15T16:39:54.650Z,14.70
2017-09-15T16:42:27.950Z,14.50
2017-09-15T16:45:00.573Z,14.50
2017-09-15T16:47:33.887Z,14.40
2017-09-15T16:50:01.095Z,14.40
2017-09-15T16:52:28.293Z,14.30
2017-09-15T16:54:54.761Z,14.30
2017-09-15T16:57:21.231Z,14.30
2017-09-15T16:59:48.465Z,14.20
2017-09-15T17:02:14.961Z,14.20
2017-09-15T17:04:41.442Z,14.20
2017-09-15T17:07:07.951Z,14.10
2017-09-15T17:09:34.394Z,14.00
2017-09-15T17:12:00.854Z,14.00
2017-09-15T17:14:27.271Z,13.80
2017-09-15T17:16:53.759Z,13.70
2017-09-15T17:19:20.176Z,13.70
2017-09-15T17:21:46.621Z,13.60
2017-09-15T17:24:13.049Z,13.50
2017-09-15T17:26:40.241Z,13.50
2017-09-15T17:29:06.713Z,13.50
2017-09-15T17:31:33.169Z,13.50
2017-09-15T17:33:59.582Z,13.30
2017-09-15T17:36:26.749Z,13.20
2017-09-15T17:38:53.197Z,13.10
2017-09-15T17:41:19.610Z,13.00
2017-09-15T17:43:46.847Z,13.00
2017-09-15T17:46:14.025Z,12.90
2017-09-15T17:48:40.455Z,12.90
2017-09-15T17:51:06.898Z,12.90
2017-09-15T17:53:33.385Z,12.80
2017-09-15T17:55:59.846Z,12.90
2017-09-15T17:58:26.298Z,12.80
2017-09-15T18:00:52.774Z,12.80
2017-09-15T18:03:19.242Z,12.80
2017-09-15T18:05:45.745Z,12.80
2017-09-15T18:08:12.192Z,12.80
2017-09-15T18:10:38.658Z,12.90
2017-09-15T18:13:05.078Z,12.50
2017-09-15T18:15:31.581Z,12.40
2017-09-15T18:17:58.049Z,12.30
2017-09-15T18:20:24.475Z,12.40
2017-09-15T18:22:50.887Z,12.40
2017-09-15T18:25:17.345Z,12.40
2017-09-15T18:27:44.537Z,12.50
2017-09-15T18:30:11.000Z,12.50
2017-09-15T18:32:37.458Z,12.50
2017-09-15T18:35:03.884Z,12.50
2017-09-15T18:37:31.065Z,12.50
2017-09-15T18:39:57.559Z,12.40
2017-09-15T18:42:24.732Z,12.40
2017-09-15T18:44:51.199Z,12.30
2017-09-15T18:47:17.621Z,12.30
2017-09-15T18:49:44.069Z,12.30
2017-09-15T18:52:10.519Z,12.30
2017-09-15T18:54:36.941Z,12.20
2017-09-15T18:57:03.397Z,12.20
2017-09-15T18:59:30.702Z,12.20
2017-09-15T19:01:57.157Z,12.20
2017-09-15T19:04:23.611Z,12.10
2017-09-15T19:06:50.853Z,12.00
2017-09-15T19:09:17.316Z,11.90
2017-09-15T19:11:43.774Z,11.90
2017-09-15T19:14:10.269Z,11.90
2017-09-15T19:16:36.746Z,11.80
2017-09-15T19:19:03.194Z,11.80
2017-09-15T19:21:29.687Z,11.80
2017-09-15T19:23:56.941Z,11.20
2017-09-15T19:26:24.114Z,10.90
2017-09-15T19:28:50.633Z,10.90
2017-09-15T19:31:17.113Z,10.60
2017-09-15T19:33:44.277Z,10.80
2017-09-15T19:36:10.771Z,10.80
2017-09-15T19:38:37.246Z,10.90
2017-09-15T19:41:03.699Z,11.00
2017-09-15T19:43:30.902Z,11.00
2017-09-15T19:45:57.373Z,11.00
2017-09-15T19:48:24.627Z,11.10
2017-09-15T19:50:51.059Z,11.00
2017-09-15T19:53:18.275Z,11.10
2017-09-15T19:55:44.786Z,11.00
2017-09-15T19:58:11.213Z,10.80
2017-09-15T20:00:38.438Z,10.60
2017-09-15T20:03:04.950Z,10.50
2017-09-15T20:05:31.382Z,10.20
2017-09-15T20:07:57.913Z,9.50
2017-09-15T20:10:24.359Z,9.40
2017-09-15T20:12:50.809Z,9.50
2017-09-15T20:15:17.225Z,9.50
2017-09-15T20:17:44.465Z,9.50
2017-09-15T20:20:10.935Z,9.50
2017-09-15T20:22:38.104Z,9.80
2017-09-15T20:25:04.576Z,9.80
2017-09-15T20:27:31.021Z,9.80
2017-09-15T20:29:57.565Z,10.00
2017-09-15T20:32:24.014Z,10.10
2017-09-15T20:34:50.462Z,10.00
2017-09-15T20:37:16.893Z,9.50
2017-09-15T20:39:43.347Z,9.00
2017-09-15T20:42:09.792Z,9.00
2017-09-15T20:44:36.227Z,9.20
2017-09-15T20:47:02.668Z,9.00
2017-09-15T20:49:29.126Z,9.00
2017-09-15T20:51:55.578Z,9.10
2017-09-15T20:54:22.118Z,9.10
2017-09-15T20:56:48.630Z,9.20
2017-09-15T20:59:15.060Z,9.10
2017-09-15T21:01:41.523Z,9.20
2017-09-15T21:04:08.001Z,9.30
2017-09-15T21:06:34.537Z,9.30
2017-09-15T21:09:00.963Z,9.30
2017-09-15T21:11:27.457Z,9.40
2017-09-15T21:13:54.005Z,9.00
2017-09-15T21:16:20.478Z,8.70
2017-09-15T21:18:46.926Z,8.40
2017-09-15T21:21:13.381Z,8.30
2017-09-15T21:23:40.568Z,8.50
2017-09-15T21:26:06.985Z,8.50
2017-09-15T21:28:34.184Z,8.80
2017-09-15T21:31:00.682Z,8.80
2017-09-15T21:33:27.188Z,8.90
2017-09-15T21:35:53.658Z,8.90
2017-09-15T21:38:20.182Z,9.00
2017-09-15T21:40:46.625Z,8.90
2017-09-15T21:43:13.064Z,9.00
2017-09-15T21:45:39.549Z,9.00
2017-09-15T21:48:06.769Z,9.00
2017-09-15T21:50:33.957Z,9.00
2017-09-15T21:53:01.141Z,9.00
2017-09-15T21:55:27.571Z,9.00
2017-09-15T21:57:53.997Z,8.90
2017-09-15T22:00:21.223Z,7.70
2017-09-15T22:02:47.598Z,7.70
2017-09-15T22:05:14.061Z,7.60
2017-09-15T22:07:40.498Z,7.30
2017-09-15T22:10:06.962Z,6.90
2017-09-15T22:12:34.178Z,6.40
2017-09-15T22:15:01.386Z,6.40
2017-09-15T22:17:27.847Z,6.40
2017-09-15T22:19:55.050Z,6.50
2017-09-15T22:22:21.537Z,6.50
2017-09-15T22:24:48.006Z,6.50
2017-09-15T22:27:14.433Z,6.50
2017-09-15T22:29:41.638Z,6.50
2017-09-15T22:32:08.082Z,6.50
2017-09-15T22:34:34.527Z,6.60
2017-09-15T22:37:00.921Z,6.70
2017-09-15T22:39:27.366Z,6.70
2017-09-15T22:41:53.809Z,6.60
2017-09-15T22:44:20.233Z,6.60
2017-09-15T22:46:46.681Z,6.60
2017-09-15T22:49:13.109Z,6.60
2017-09-15T22:51:39.549Z,6.50
2017-09-15T22:54:06.037Z,6.40
2017-09-15T22:56:32.517Z,6.40
2017-09-15T22:58:58.985Z,6.60
2017-09-15T23:01:26.184Z,6.80
2017-09-15T23:03:52.639Z,6.80
2017-09-15T23:06:19.090Z,6.80
2017-09-15T23:08:46.320Z,6.70
2017-09-15T23:11:12.782Z,6.70
2017-09-15T23:13:39.258Z,6.70
2017-09-15T23:16:05.730Z,6.80
2017-09-15T23:18:32.211Z,6.90
2017-09-15T23:20:58.650Z,6.80
2017-09-15T23:23:25.073Z,6.60
2017-09-15T23:25:52.274Z,6.50
2017-09-15T23:28:18.706Z,6.60
2017-09-15T23:30:45.174Z,6.60
2017-09-15T23:33:11.641Z,6.60
2017-09-15T23:35:38.061Z,6.60
2017-09-15T23:38:05.207Z,6.40
2017-09-15T23:40:31.685Z,6.40
2017-09-15T23:42:58.137Z,6.30
2017-09-15T23:45:24.565Z,6.30
2017-09-15T23:47:51.004Z,6.20
2017-09-15T23:50:17.413Z,6.20
2017-09-15T23:52:43.887Z,6.20
2017-09-15T23:55:11.066Z,6.50
2017-09-15T23:57:37.528Z,6.50
